Time;durP1;ratioP1;P1;durP2;ratioP2;P2;SDS_P1;SDS_P2;PMS_P1;PMS_P2;Temp;Humidity;BMP_temperature;BMP_pressure;BME280_temperature;BME280_humidity;BME280_pressure;Samples;Min_cycle;Max_cycle;Signal;HPM_P1;HPM_P2
2023/08/27 00:01:27;;;;;;;;;;;;;;;;;;7371236;19;1653;-67
2023/08/27 00:03:55;;;;;;;;;;;;;;;;;;7366583;19;845;-67
2023/08/27 00:06:23;;;;;;;;;;;;;;;;;;7367657;19;1695;-67
2023/08/27 00:08:52;;;;;;;;;;;;;;;;;;7365254;19;1845;-67
2023/08/27 00:11:20;;;;;;;;;;;;;;;;;;7367525;19;1741;-66
2023/08/27 00:13:48;;;;;;;;;;;;;;;;;;7369414;19;1923;-67
2023/08/27 00:16:16;;;;;;;;;;;;;;;;;;7365612;19;1897;-66
2023/08/27 00:18:44;;;;;;;;;;;;;;;;;;7367378;19;1726;-67
2023/08/27 00:21:12;;;;;;;;;;;;;;;;;;7370057;19;1460;-67
2023/08/27 00:23:41;;;;;;;;;;;;;;;;;;7365113;19;1621;-65
2023/08/27 00:26:09;;;;;;;;;;;;;;;;;;7365541;19;1865;-66
2023/08/27 00:28:37;;;;;;;;;;;;;;;;;;7366365;19;1861;-67
2023/08/27 00:31:06;;;;;;;;;;;;;;;;;;7367573;19;1711;-67
2023/08/27 00:33:35;;;;;;;;;;;;;;;;;;7363518;19;793;-67
2023/08/27 00:36:03;;;;;;;;;;;;;;;;;;7361624;19;1834;-65
2023/08/27 00:38:31;;;;;;;;;;;;;;;;;;7365800;19;1499;-66
2023/08/27 00:40:59;;;;;;;;;;;;;;;;;;7364589;19;1717;-66
2023/08/27 00:43:27;;;;;;;;;;;;;;;;;;7368701;19;1593;-67
2023/08/27 00:45:56;;;;;;;;;;;;;;;;;;7361016;19;1907;-66
2023/08/27 00:48:24;;;;;;;;;;;;;;;;;;7363537;19;1848;-67
2023/08/27 00:50:52;;;;;;;;;;;;;;;;;;7362819;19;2160;-67
2023/08/27 00:53:20;;;;;;;;;;;;;;;;;;7366201;19;1850;-68
2023/08/27 00:55:51;;;;;;;;;;;;;;;;;;7362357;19;1800;-68
2023/08/27 00:58:19;;;;;;;;;;;;;;;;;;7366639;19;1697;-66
2023/08/27 01:00:47;;;;;;;;;;;;;;;;;;7363153;19;807;-66
2023/08/27 01:03:15;;;;;;;;;;;;;;;;;;7362800;19;1881;-67
2023/08/27 01:05:43;;;;;;;;;;;;;;;;;;7362750;19;1976;-66
2023/08/27 01:08:12;;;;;;;;;;;;;;;;;;7366710;19;1928;-67
2023/08/27 01:10:40;;;;;;;;;;;;;;;;;;7362700;19;2051;-68
2023/08/27 01:13:08;;;;;;;;;;;;;;;;;;7368198;19;1434;-68
2023/08/27 01:15:37;;;;;;;;;;;;;;;;;;7361116;19;1751;-68
2023/08/27 01:18:05;;;;;;;;;;;;;;;;;;7366264;19;1841;-68
2023/08/27 01:20:33;;;;;;;;;;;;;;;;;;7364373;19;2078;-67
2023/08/27 01:23:01;;;;;;;;;;;;;;;;;;7366815;19;1606;-68
2023/08/27 01:25:30;;;;;;;;;;;;;;;;;;7360575;19;1857;-68
2023/08/27 01:27:58;;;;;;;;;;;;;;;;;;7366178;19;1989;-67
2023/08/27 01:30:26;;;;;;;;;;;;;;;;;;7365636;19;1853;-68
2023/08/27 01:32:54;;;;;;;;;;;;;;;;;;7368363;19;1870;-66
2023/08/27 01:35:22;;;;;;;;;;;;;;;;;;7370685;19;1627;-66
2023/08/27 01:37:50;;;;;;;;;;;;;;;;;;7371010;19;1682;-67
2023/08/27 01:40:19;;;;;;;;;;;;;;;;;;7371092;19;1702;-67
2023/08/27 01:42:47;;;;;;;;;;;;;;;;;;7373601;19;1380;-68
2023/08/27 01:45:16;;;;;;;;;;;;;;;;;;7369950;19;2017;-68
2023/08/27 01:47:45;;;;;;;;;;;;;;;;;;7373844;19;1479;-68
2023/08/27 01:50:13;;;;;;;;;;;;;;;;;;7368188;19;1997;-68
2023/08/27 01:52:41;;;;;;;;;;;;;;;;;;7371713;19;1729;-68
2023/08/27 01:55:10;;;;;;;;;;;;;;;;;;7368900;19;1367;-70
2023/08/27 01:57:39;;;;;;;;;;;;;;;;;;7369585;19;867;-68
2023/08/27 02:00:09;;;;;;;;;;;;;;;;;;7368720;19;1712;-67
2023/08/27 02:02:43;;;;;;;;;;;;;;;;;;7372854;19;1690;-68
2023/08/27 02:05:11;;;;;;;;;;;;;;;;;;7367340;19;1300;-67
2023/08/27 02:07:39;;;;;;;;;;;;;;;;;;7366812;19;1714;-66
2023/08/27 02:10:07;;;;;;;;;;;;;;;;;;7369499;19;1845;-67
2023/08/27 02:12:36;;;;;;;;;;;;;;;;;;7371665;19;1666;-67
2023/08/27 02:15:06;;;;;;;;;;;;;;;;;;7366622;19;1353;-67
2023/08/27 02:17:34;;;;;;;;;;;;;;;;;;7371143;19;1791;-68
2023/08/27 02:20:06;;;;;;;;;;;;;;;;;;7371359;19;1743;-67
2023/08/27 02:22:34;;;;;;;;;;;;;;;;;;7368081;19;1994;-67
2023/08/27 02:25:02;;;;;;;;;;;;;;;;;;7368331;19;1820;-67
2023/08/27 02:27:31;;;;;;;;;;;;;;;;;;7370356;19;1484;-67
2023/08/27 02:29:59;;;;;;;;;;;;;;;;;;7367786;19;2004;-68
2023/08/27 02:32:27;;;;;;;;;;;;;;;;;;7373349;19;1559;-68
2023/08/27 02:34:55;;;;;;;;;;;;;;;;;;7368896;19;2095;-66
2023/08/27 02:37:24;;;;;;;;;;;;;;;;;;7370364;19;1664;-67
2023/08/27 02:39:52;;;;;;;;;;;;;;;;;;7371547;19;1418;-67
2023/08/27 02:42:20;;;;;;;;;;;;;;;;;;7366409;19;810;-66
2023/08/27 02:44:49;;;;;;;;;;;;;;;;;;7368091;19;1800;-67
2023/08/27 02:47:17;;;;;;;;;;;;;;;;;;7371566;19;1621;-67
2023/08/27 02:49:45;;;;;;;;;;;;;;;;;;7368139;19;1971;-65
2023/08/27 02:52:13;;;;;;;;;;;;;;;;;;7370603;19;1620;-66
2023/08/27 02:54:41;;;;;;;;;;;;;;;;;;7369212;19;1488;-66
2023/08/27 02:57:09;;;;;;;;;;;;;;;;;;7369556;19;1770;-66
2023/08/27 02:59:37;;;;;;;;;;;;;;;;;;7368216;19;1730;-66
2023/08/27 03:02:06;;;;;;;;;;;;;;;;;;7366494;19;1814;-66
2023/08/27 03:04:34;;;;;;;;;;;;;;;;;;7369952;19;1952;-66
2023/08/27 03:07:02;;;;;;;;;;;;;;;;;;7371980;19;1527;-66
2023/08/27 03:09:30;;;;;;;;;;;;;;;;;;7367442;19;1859;-66
2023/08/27 03:11:59;;;;;;;;;;;;;;;;;;7370690;19;1659;-67
2023/08/27 03:14:27;;;;;;;;;;;;;;;;;;7370350;19;1859;-67
2023/08/27 03:16:55;;;;;;;;;;;;;;;;;;7368438;19;1699;-67
2023/08/27 03:19:23;;;;;;;;;;;;;;;;;;7371306;19;1637;-66
2023/08/27 03:21:51;;;;;;;;;;;;;;;;;;7369498;19;1815;-66
2023/08/27 03:24:19;;;;;;;;;;;;;;;;;;7368958;19;1427;-66
2023/08/27 03:26:47;;;;;;;;;;;;;;;;;;7367588;19;1640;-66
2023/08/27 03:29:16;;;;;;;;;;;;;;;;;;7369000;19;1424;-66
2023/08/27 03:31:46;;;;;;;;;;;;;;;;;;7366039;19;821;-67
2023/08/27 03:34:14;;;;;;;;;;;;;;;;;;7368437;19;1814;-67
2023/08/27 03:36:44;;;;;;;;;;;;;;;;;;7367655;19;1823;-66
2023/08/27 03:39:12;;;;;;;;;;;;;;;;;;7367530;19;1620;-67
2023/08/27 03:41:40;;;;;;;;;;;;;;;;;;7368810;19;1213;-64
2023/08/27 03:44:08;;;;;;;;;;;;;;;;;;7366108;19;2072;-68
2023/08/27 03:46:37;;;;;;;;;;;;;;;;;;7367051;19;1742;-65
2023/08/27 03:49:05;;;;;;;;;;;;;;;;;;7368338;19;1946;-64
2023/08/27 03:51:33;;;;;;;;;;;;;;;;;;7366261;19;1845;-62
2023/08/27 03:54:02;;;;;;;;;;;;;;;;;;7363600;19;861;-62
2023/08/27 03:56:31;;;;;;;;;;;;;;;;;;7369363;19;1595;-60
2023/08/27 03:58:59;;;;;;;;;;;;;;;;;;7368385;19;2123;-64
2023/08/27 04:01:27;;;;;;;;;;;;;;;;;;7370866;19;1522;-60
2023/08/27 04:03:55;;;;;;;;;;;;;;;;;;7366414;19;786;-64
2023/08/27 04:06:23;;;;;;;;;;;;;;;;;;7365912;19;1977;-56
2023/08/27 04:08:52;;;;;;;;;;;;;;;;;;7370015;19;1329;-61
2023/08/27 04:11:20;;;;;;;;;;;;;;;;;;7364026;19;1861;-63
2023/08/27 04:13:49;;;;;;;;;;;;;;;;;;7366771;19;2029;-63
2023/08/27 04:16:18;;;;;;;;;;;;;;;;;;7364460;19;1830;-64
2023/08/27 04:18:46;;;;;;;;;;;;;;;;;;7369488;19;2084;-63
2023/08/27 04:21:14;;;;;;;;;;;;;;;;;;7364774;19;786;-63
2023/08/27 04:23:42;;;;;;;;;;;;;;;;;;7364151;19;794;-64
2023/08/27 04:26:11;;;;;;;;;;;;;;;;;;7366505;19;1626;-64
2023/08/27 04:28:39;;;;;;;;;;;;;;;;;;7368738;19;1641;-66
2023/08/27 04:31:07;;;;;;;;;;;;;;;;;;7362767;19;1842;-64
2023/08/27 04:33:37;;;;;;;;;;;;;;;;;;7368568;19;1441;-65
2023/08/27 04:36:05;;;;;;;;;;;;;;;;;;7363178;19;1336;-64
2023/08/27 04:38:33;;;;;;;;;;;;;;;;;;7363004;19;822;-65
2023/08/27 04:41:02;;;;;;;;;;;;;;;;;;7365285;19;797;-63
2023/08/27 04:43:30;;;;;;;;;;;;;;;;;;7365326;19;809;-64
2023/08/27 04:46:00;;;;;;;;;;;;;;;;;;7360896;19;1266;-65
2023/08/27 04:48:29;;;;;;;;;;;;;;;;;;7366745;19;2137;-65
2023/08/27 04:50:57;;;;;;;;;;;;;;;;;;7366120;19;1849;-61
2023/08/27 04:53:26;;;;;;;;;;;;;;;;;;7368376;19;1486;-64
2023/08/27 04:55:55;;;;;;;;;;;;;;;;;;7364228;19;1707;-64
2023/08/27 04:58:24;;;;;;;;;;;;;;;;;;7367056;19;1515;-64
2023/08/27 05:00:53;;;;;;;;;;;;;;;;;;7365504;19;1655;-66
2023/08/27 05:03:22;;;;;;;;;;;;;;;;;;7366710;19;1903;-65
2023/08/27 05:05:50;;;;;;;;;;;;;;;;;;7367657;19;1712;-65
2023/08/27 05:08:18;;;;;;;;;;;;;;;;;;7373418;19;1491;-66
2023/08/27 05:10:46;;;;;;;;;;;;;;;;;;7368844;19;1861;-66
2023/08/27 05:13:15;;;;;;;;;;;;;;;;;;7370427;19;1999;-65
2023/08/27 05:15:43;;;;;;;;;;;;;;;;;;7369065;19;1661;-64
2023/08/27 05:18:11;;;;;;;;;;;;;;;;;;7370776;19;1769;-64
2023/08/27 05:20:39;;;;;;;;;;;;;;;;;;7371792;19;1992;-65
2023/08/27 05:23:08;;;;;;;;;;;;;;;;;;7372873;19;1827;-65
2023/08/27 05:25:37;;;;;;;;;;;;;;;;;;7370386;19;1706;-61
2023/08/27 05:28:05;;;;;;;;;;;;;;;;;;7369735;19;830;-64
2023/08/27 05:30:33;;;;;;;;;;;;;;;;;;7367779;19;1841;-64
2023/08/27 05:33:02;;;;;;;;;;;;;;;;;;7369832;19;775;-63
2023/08/27 05:35:30;;;;;;;;;;;;;;;;;;7370613;19;1760;-63
2023/08/27 05:37:58;;;;;;;;;;;;;;;;;;7371994;19;1674;-63
2023/08/27 05:40:26;;;;;;;;;;;;;;;;;;7370447;19;1830;-61
2023/08/27 05:42:54;;;;;;;;;;;;;;;;;;7370120;19;1650;-63
2023/08/27 05:45:23;;;;;;;;;;;;;;;;;;7372761;19;1985;-67
2023/08/27 05:47:51;;;;;;;;;;;;;;;;;;7373162;19;1790;-61
2023/08/27 05:50:20;;;;;;;;;;;;;;;;;;7369225;19;1849;-63
2023/08/27 05:52:48;;;;;;;;;;;;;;;;;;7371907;19;1671;-63
2023/08/27 05:55:17;;;;;;;;;;;;;;;;;;7371745;19;1353;-63
2023/08/27 05:57:45;;;;;;;;;;;;;;;;;;7367969;19;1614;-58
2023/08/27 06:00:13;;;;;;;;;;;;;;;;;;7370724;19;1828;-62
2023/08/27 06:02:41;;;;;;;;;;;;;;;;;;7371974;19;1641;-59
2023/08/27 06:05:11;;;;;;;;;;;;;;;;;;7365395;19;1687;-67
2023/08/27 06:07:39;;;;;;;;;;;;;;;;;;7369019;19;1695;-63
2023/08/27 06:10:08;;;;;;;;;;;;;;;;;;7366975;19;1837;-65
2023/08/27 06:12:36;;;;;;;;;;;;;;;;;;7371404;19;1487;-63
2023/08/27 06:15:04;;;;;;;;;;;;;;;;;;7365765;19;1288;-62
2023/08/27 06:17:32;;;;;;;;;;;;;;;;;;7366728;19;1861;-63
2023/08/27 06:20:01;;;;;;;;;;;;;;;;;;7369609;19;1666;-62
2023/08/27 06:22:29;;;;;;;;;;;;;;;;;;7372378;19;1585;-63
2023/08/27 06:24:58;;;;;;;;;;;;;;;;;;7367126;19;1635;-64
2023/08/27 06:27:26;;;;;;;;;;;;;;;;;;7370310;19;1612;-62
2023/08/27 06:29:54;;;;;;;;;;;;;;;;;;7368711;19;1735;-64
2023/08/27 06:32:22;;;;;;;;;;;;;;;;;;7367820;19;1849;-63
2023/08/27 06:34:50;;;;;;;;;;;;;;;;;;7365976;19;1854;-63
2023/08/27 06:37:19;;;;;;;;;;;;;;;;;;7368725;19;1723;-63
2023/08/27 06:39:47;;;;;;;;;;;;;;;;;;7370166;19;1645;-59
2023/08/27 06:42:15;;;;;;;;;;;;;;;;;;7370477;19;1734;-60
2023/08/27 06:44:43;;;;;;;;;;;;;;;;;;7368256;19;1509;-62
2023/08/27 06:47:11;;;;;;;;;;;;;;;;;;7367735;19;805;-63
2023/08/27 06:49:39;;;;;;;;;;;;;;;;;;7364925;19;842;-59
2023/08/27 06:52:09;;;;;;;;;;;;;;;;;;7364090;19;1862;-60
2023/08/27 06:54:37;;;;;;;;;;;;;;;;;;7367433;19;1322;-62
2023/08/27 06:57:06;;;;;;;;;;;;;;;;;;7368069;19;1854;-59
2023/08/27 06:59:34;;;;;;;;;;;;;;;;;;7365020;19;790;-59
2023/08/27 07:02:03;;;;;;;;;;;;;;;;;;7367590;19;800;-60
2023/08/27 07:04:31;;;;;;;;;;;;;;;;;;7365645;19;1298;-63
2023/08/27 07:06:59;;;;;;;;;;;;;;;;;;7365834;19;775;-63
2023/08/27 07:09:27;;;;;;;;;;;;;;;;;;7364663;19;825;-62
2023/08/27 07:11:55;;;;;;;;;;;;;;;;;;7365342;19;1837;-62
2023/08/27 07:14:24;;;;;;;;;;;;;;;;;;7365421;19;1339;-60
2023/08/27 07:16:52;;;;;;;;;;;;;;;;;;7365372;19;1668;-59
2023/08/27 07:19:20;;;;;;;;;;;;;;;;;;7367463;19;1875;-62
2023/08/27 07:21:48;;;;;;;;;;;;;;;;;;7368428;19;1982;-63
2023/08/27 07:24:16;;;;;;;;;;;;;;;;;;7367454;19;2104;-62
2023/08/27 07:26:45;;;;;;;;;;;;;;;;;;7365296;19;1747;-63
2023/08/27 07:29:13;;;;;;;;;;;;;;;;;;7363894;19;904;-61
2023/08/27 07:31:42;;;;;;;;;;;;;;;;;;7364671;19;1837;-64
2023/08/27 07:34:10;;;;;;;;;;;;;;;;;;7365216;19;1330;-62
2023/08/27 07:36:38;;;;;;;;;;;;;;;;;;7367592;19;882;-63
2023/08/27 07:39:06;;;;;;;;;;;;;;;;;;7363713;19;804;-61
2023/08/27 07:41:35;;;;;;;;;;;;;;;;;;7365083;19;1036;-62
2023/08/27 07:44:03;;;;;;;;;;;;;;;;;;7364566;19;834;-63
2023/08/27 07:46:32;;;;;;;;;;;;;;;;;;7363133;19;1724;-62
2023/08/27 07:49:00;;;;;;;;;;;;;;;;;;7367813;19;1931;-62
2023/08/27 07:51:28;;;;;;;;;;;;;;;;;;7368111;19;1841;-63
2023/08/27 07:53:56;;;;;;;;;;;;;;;;;;7364424;19;857;-62
2023/08/27 07:56:25;;;;;;;;;;;;;;;;;;7361683;19;2127;-64
2023/08/27 07:58:53;;;;;;;;;;;;;;;;;;7365038;19;1725;-64
2023/08/27 08:01:21;;;;;;;;;;;;;;;;;;7367023;19;1641;-63
2023/08/27 08:03:50;;;;;;;;;;;;;;;;;;7365786;19;2090;-63
2023/08/27 08:06:18;;;;;;;;;;;;;;;;;;7363286;19;1887;-62
2023/08/27 08:08:46;;;;;;;;;;;;;;;;;;7368301;19;1595;-63
2023/08/27 08:11:16;;;;;;;;;;;;;;;;;;7365273;19;1865;-62
2023/08/27 08:13:45;;;;;;;;;;;;;;;;;;7367122;19;1691;-63
2023/08/27 08:16:13;;;;;;;;;;;;;;;;;;7365568;19;1798;-66
2023/08/27 08:18:41;;;;;;;;;;;;;;;;;;7366755;19;1705;-62
2023/08/27 08:21:09;;;;;;;;;;;;;;;;;;7367183;19;2105;-62
2023/08/27 08:23:37;;;;;;;;;;;;;;;;;;7367943;19;1966;-61
2023/08/27 08:26:06;;;;;;;;;;;;;;;;;;7363088;19;1850;-63
2023/08/27 08:28:34;;;;;;;;;;;;;;;;;;7366069;19;1799;-63
2023/08/27 08:31:03;;;;;;;;;;;;;;;;;;7367636;19;1851;-63
2023/08/27 08:33:31;;;;;;;;;;;;;;;;;;7367249;19;1826;-62
2023/08/27 08:35:59;;;;;;;;;;;;;;;;;;7364744;19;1697;-65
2023/08/27 08:38:27;;;;;;;;;;;;;;;;;;7364963;19;1746;-65
2023/08/27 08:40:55;;;;;;;;;;;;;;;;;;7373240;19;1379;-63
2023/08/27 08:43:23;;;;;;;;;;;;;;;;;;7370451;19;1918;-66
2023/08/27 08:45:52;;;;;;;;;;;;;;;;;;7371297;19;1848;-65
2023/08/27 08:48:22;;;;;;;;;;;;;;;;;;7372550;19;1588;-67
2023/08/27 08:50:50;;;;;;;;;;;;;;;;;;7374337;19;1515;-67
2023/08/27 08:53:18;;;;;;;;;;;;;;;;;;7366508;19;1838;-66
2023/08/27 08:55:46;;;;;;;;;;;;;;;;;;7370915;19;1964;-65
2023/08/27 08:58:16;;;;;;;;;;;;;;;;;;7371529;19;1346;-65
2023/08/27 09:00:44;;;;;;;;;;;;;;;;;;7370460;19;866;-65
2023/08/27 09:03:12;;;;;;;;;;;;;;;;;;7371400;19;1687;-64
2023/08/27 09:05:40;;;;;;;;;;;;;;;;;;7372062;19;1911;-64
2023/08/27 09:08:08;;;;;;;;;;;;;;;;;;7372470;19;1880;-66
2023/08/27 09:10:36;;;;;;;;;;;;;;;;;;7371283;19;1623;-66
2023/08/27 09:13:05;;;;;;;;;;;;;;;;;;7369890;19;1854;-66
2023/08/27 09:15:33;;;;;;;;;;;;;;;;;;7372241;19;1720;-66
2023/08/27 09:18:01;;;;;;;;;;;;;;;;;;7371517;19;1725;-65
2023/08/27 09:20:29;;;;;;;;;;;;;;;;;;7372835;19;1813;-65
2023/08/27 09:22:57;;;;;;;;;;;;;;;;;;7372899;19;2098;-64
2023/08/27 09:25:26;;;;;;;;;;;;;;;;;;7371421;19;1625;-65
2023/08/27 09:27:54;;;;;;;;;;;;;;;;;;7370985;19;1796;-64
2023/08/27 09:30:22;;;;;;;;;;;;;;;;;;7369753;19;1912;-64
2023/08/27 09:32:50;;;;;;;;;;;;;;;;;;7369273;19;2075;-64
2023/08/27 09:35:18;;;;;;;;;;;;;;;;;;7372211;19;1894;-65
2023/08/27 09:37:47;;;;;;;;;;;;;;;;;;7371467;19;1758;-64
2023/08/27 09:40:16;;;;;;;;;;;;;;;;;;7370675;19;1759;-64
2023/08/27 09:42:44;;;;;;;;;;;;;;;;;;7370892;19;1850;-66
2023/08/27 09:45:12;;;;;;;;;;;;;;;;;;7369928;19;1911;-64
2023/08/27 09:47:40;;;;;;;;;;;;;;;;;;7374357;19;1817;-65
2023/08/27 09:50:09;;;;;;;;;;;;;;;;;;7367877;19;918;-64
2023/08/27 09:52:37;;;;;;;;;;;;;;;;;;7365802;19;1845;-66
2023/08/27 09:55:05;;;;;;;;;;;;;;;;;;7368111;19;1356;-66
2023/08/27 09:57:34;;;;;;;;;;;;;;;;;;7367070;19;874;-65
2023/08/27 10:00:02;;;;;;;;;;;;;;;;;;7368502;19;838;-65
2023/08/27 10:02:41;;;;;;;;;;;;;;;;;;7369800;19;722;-64
2023/08/27 10:05:10;;;;;;;;;;;;;;;;;;7367917;19;1345;-66
2023/08/27 10:07:38;;;;;;;;;;;;;;;;;;7367541;19;829;-65
2023/08/27 10:10:06;;;;;;;;;;;;;;;;;;7368256;19;857;-66
2023/08/27 10:12:34;;;;;;;;;;;;;;;;;;7367185;19;1846;-65
2023/08/27 10:15:03;;;;;;;;;;;;;;;;;;7366592;19;1290;-65
2023/08/27 10:17:31;;;;;;;;;;;;;;;;;;7368680;19;704;-64
2023/08/27 10:19:59;;;;;;;;;;;;;;;;;;7366548;19;857;-65
2023/08/27 10:22:27;;;;;;;;;;;;;;;;;;7368148;19;798;-65
2023/08/27 10:24:55;;;;;;;;;;;;;;;;;;7366466;19;1910;-65
2023/08/27 10:27:23;;;;;;;;;;;;;;;;;;7370829;19;2099;-65
2023/08/27 10:29:51;;;;;;;;;;;;;;;;;;7370453;19;1528;-65
2023/08/27 10:32:20;;;;;;;;;;;;;;;;;;7367081;19;1846;-65
2023/08/27 10:34:48;;;;;;;;;;;;;;;;;;7366957;19;1357;-65
2023/08/27 10:37:16;;;;;;;;;;;;;;;;;;7367170;19;1696;-65
2023/08/27 10:39:44;;;;;;;;;;;;;;;;;;7369604;19;1524;-65
2023/08/27 10:42:12;;;;;;;;;;;;;;;;;;7369332;19;1861;-65
2023/08/27 10:44:40;;;;;;;;;;;;;;;;;;7368567;19;1580;-65
2023/08/27 10:47:08;;;;;;;;;;;;;;;;;;7366505;19;2093;-67
2023/08/27 10:49:37;;;;;;;;;;;;;;;;;;7367720;19;1943;-65
2023/08/27 10:52:05;;;;;;;;;;;;;;;;;;7370346;19;1863;-65
2023/08/27 10:54:33;;;;;;;;;;;;;;;;;;7367919;19;2090;-65
2023/08/27 10:57:01;;;;;;;;;;;;;;;;;;7369282;19;1704;-69
2023/08/27 10:59:30;;;;;;;;;;;;;;;;;;7370508;19;1545;-67
2023/08/27 11:01:58;;;;;;;;;;;;;;;;;;7366343;19;821;-65
2023/08/27 11:04:26;;;;;;;;;;;;;;;;;;7368821;19;1706;-65
2023/08/27 11:06:55;;;;;;;;;;;;;;;;;;7369885;19;1805;-66
2023/08/27 11:09:23;;;;;;;;;;;;;;;;;;7369394;19;1467;-66
2023/08/27 11:11:52;;;;;;;;;;;;;;;;;;7367063;19;1838;-66
2023/08/27 11:14:20;;;;;;;;;;;;;;;;;;7367513;19;1701;-65
2023/08/27 11:16:49;;;;;;;;;;;;;;;;;;7366996;19;1921;-65
2023/08/27 11:19:17;;;;;;;;;;;;;;;;;;7369434;19;1807;-65
2023/08/27 11:21:45;;;;;;;;;;;;;;;;;;7367713;19;1696;-65
2023/08/27 11:24:13;;;;;;;;;;;;;;;;;;7367696;19;1803;-66
2023/08/27 11:26:42;;;;;;;;;;;;;;;;;;7370245;19;1898;-64
2023/08/27 11:29:10;;;;;;;;;;;;;;;;;;7368560;19;1904;-66
2023/08/27 11:31:38;;;;;;;;;;;;;;;;;;7371085;19;1794;-65
2023/08/27 11:34:07;;;;;;;;;;;;;;;;;;7368167;19;1857;-66
2023/08/27 11:36:35;;;;;;;;;;;;;;;;;;7370612;19;2045;-65
2023/08/27 11:39:05;;;;;;;;;;;;;;;;;;7368106;19;1644;-66
2023/08/27 11:41:33;;;;;;;;;;;;;;;;;;7369498;19;1578;-67
2023/08/27 11:44:02;;;;;;;;;;;;;;;;;;7370358;19;2025;-68
2023/08/27 11:46:30;;;;;;;;;;;;;;;;;;7363424;19;1282;-67
2023/08/27 11:48:59;;;;;;;;;;;;;;;;;;7368594;19;1554;-69
2023/08/27 11:51:27;;;;;;;;;;;;;;;;;;7369653;19;1720;-71
2023/08/27 11:53:55;;;;;;;;;;;;;;;;;;7365896;19;1885;-67
2023/08/27 11:56:24;;;;;;;;;;;;;;;;;;7366591;19;1940;-67
2023/08/27 11:58:52;;;;;;;;;;;;;;;;;;7369674;19;2131;-67
2023/08/27 12:01:21;;;;;;;;;;;;;;;;;;7369435;19;1666;-66
2023/08/27 12:03:49;;;;;;;;;;;;;;;;;;7364583;19;910;-67
2023/08/27 12:06:17;;;;;;;;;;;;;;;;;;7363618;19;1719;-66
2023/08/27 12:08:45;;;;;;;;;;;;;;;;;;7366805;19;1394;-69
2023/08/27 12:11:14;;;;;;;;;;;;;;;;;;7365551;19;821;-70
2023/08/27 12:13:42;;;;;;;;;;;;;;;;;;7364154;19;1854;-67
2023/08/27 12:16:10;;;;;;;;;;;;;;;;;;7364503;19;1774;-66
2023/08/27 12:18:38;;;;;;;;;;;;;;;;;;7365786;19;1868;-67
2023/08/27 12:21:07;;;;;;;;;;;;;;;;;;7368488;19;1906;-69
2023/08/27 12:23:35;;;;;;;;;;;;;;;;;;7368647;19;1853;-70
2023/08/27 12:26:04;;;;;;;;;;;;;;;;;;7365630;19;1517;-68
2023/08/27 12:28:32;;;;;;;;;;;;;;;;;;7364528;19;841;-67
2023/08/27 12:31:00;;;;;;;;;;;;;;;;;;7366859;19;1699;-70
2023/08/27 12:33:29;;;;;;;;;;;;;;;;;;7365293;19;2273;-68
2023/08/27 12:35:57;;;;;;;;;;;;;;;;;;7366908;19;1784;-67
2023/08/27 12:38:25;;;;;;;;;;;;;;;;;;7364449;19;877;-67
2023/08/27 12:40:53;;;;;;;;;;;;;;;;;;7365389;19;771;-67
2023/08/27 12:43:21;;;;;;;;;;;;;;;;;;7368642;19;817;-67
2023/08/27 12:45:50;;;;;;;;;;;;;;;;;;7362139;19;1267;-67
2023/08/27 12:48:18;;;;;;;;;;;;;;;;;;7363934;19;870;-72
2023/08/27 12:50:46;;;;;;;;;;;;;;;;;;7365412;19;1496;-69
2023/08/27 12:53:14;;;;;;;;;;;;;;;;;;7362301;19;1845;-69
2023/08/27 12:55:43;;;;;;;;;;;;;;;;;;7361918;19;1273;-67
2023/08/27 12:58:11;;;;;;;;;;;;;;;;;;7363091;19;806;-66
2023/08/27 13:00:39;;;;;;;;;;;;;;;;;;7368718;19;840;-65
2023/08/27 13:03:08;;;;;;;;;;;;;;;;;;7364685;19;761;-66
2023/08/27 13:05:36;;;;;;;;;;;;;;;;;;7362316;19;1324;-65
2023/08/27 13:08:04;;;;;;;;;;;;;;;;;;7363379;19;802;-68
2023/08/27 13:10:32;;;;;;;;;;;;;;;;;;7364118;19;855;-65
2023/08/27 13:13:00;;;;;;;;;;;;;;;;;;7362705;19;1849;-64
2023/08/27 13:15:29;;;;;;;;;;;;;;;;;;7361277;19;1277;-65
2023/08/27 13:17:57;;;;;;;;;;;;;;;;;;7363864;19;821;-66
2023/08/27 13:20:25;;;;;;;;;;;;;;;;;;7362749;19;824;-64
2023/08/27 13:22:53;;;;;;;;;;;;;;;;;;7363651;19;759;-64
2023/08/27 13:25:21;;;;;;;;;;;;;;;;;;7362720;19;1281;-63
2023/08/27 13:27:50;;;;;;;;;;;;;;;;;;7372437;19;1750;-64
2023/08/27 13:30:20;;;;;;;;;;;;;;;;;;7369612;19;882;-64
2023/08/27 13:32:48;;;;;;;;;;;;;;;;;;7370801;19;1827;-64
2023/08/27 13:35:16;;;;;;;;;;;;;;;;;;7368969;19;1839;-65
2023/08/27 13:37:44;;;;;;;;;;;;;;;;;;7369988;19;790;-67
2023/08/27 13:40:12;;;;;;;;;;;;;;;;;;7368987;19;853;-65
2023/08/27 13:42:40;;;;;;;;;;;;;;;;;;7369741;19;856;-66
2023/08/27 13:45:08;;;;;;;;;;;;;;;;;;7368987;19;1462;-66
2023/08/27 13:47:37;;;;;;;;;;;;;;;;;;7368783;19;1625;-66
2023/08/27 13:50:05;;;;;;;;;;;;;;;;;;7369413;19;825;-65
2023/08/27 13:52:33;;;;;;;;;;;;;;;;;;7369259;19;1850;-66
2023/08/27 13:55:01;;;;;;;;;;;;;;;;;;7367934;19;1341;-65
2023/08/27 13:57:29;;;;;;;;;;;;;;;;;;7368851;19;783;-64
2023/08/27 13:59:57;;;;;;;;;;;;;;;;;;7370690;19;1359;-65
2023/08/27 14:02:25;;;;;;;;;;;;;;;;;;7374144;19;1495;-65
2023/08/27 14:04:54;;;;;;;;;;;;;;;;;;7371280;19;1401;-65
2023/08/27 14:07:22;;;;;;;;;;;;;;;;;;7369889;19;1710;-65
2023/08/27 14:09:50;;;;;;;;;;;;;;;;;;7368401;19;874;-66
2023/08/27 14:12:18;;;;;;;;;;;;;;;;;;7368048;19;1770;-66
2023/08/27 14:14:46;;;;;;;;;;;;;;;;;;7369174;19;1842;-65
2023/08/27 14:17:16;;;;;;;;;;;;;;;;;;7368663;19;1818;-67
2023/08/27 14:19:44;;;;;;;;;;;;;;;;;;7370492;19;1785;-64
2023/08/27 14:22:12;;;;;;;;;;;;;;;;;;7371666;19;1969;-64
2023/08/27 14:24:40;;;;;;;;;;;;;;;;;;7363827;19;1345;-65
2023/08/27 14:27:09;;;;;;;;;;;;;;;;;;7367059;19;835;-66
2023/08/27 14:29:37;;;;;;;;;;;;;;;;;;7367778;19;845;-67
2023/08/27 14:32:05;;;;;;;;;;;;;;;;;;7367816;19;861;-67
2023/08/27 14:34:33;;;;;;;;;;;;;;;;;;7365772;19;1857;-66
2023/08/27 14:37:02;;;;;;;;;;;;;;;;;;7365246;19;810;-65
2023/08/27 14:39:30;;;;;;;;;;;;;;;;;;7368006;19;886;-65
2023/08/27 14:41:59;;;;;;;;;;;;;;;;;;7367681;19;2122;-67
2023/08/27 14:44:27;;;;;;;;;;;;;;;;;;7369032;19;2080;-66
2023/08/27 14:46:55;;;;;;;;;;;;;;;;;;7371566;19;2088;-65
2023/08/27 14:49:23;;;;;;;;;;;;;;;;;;7369005;19;1650;-65
2023/08/27 14:51:51;;;;;;;;;;;;;;;;;;7370971;19;1558;-64
2023/08/27 14:54:19;;;;;;;;;;;;;;;;;;7364826;19;1834;-64
2023/08/27 14:56:47;;;;;;;;;;;;;;;;;;7370331;19;1595;-66
2023/08/27 14:59:16;;;;;;;;;;;;;;;;;;7370838;19;1575;-66
2023/08/27 15:01:44;;;;;;;;;;;;;;;;;;7366258;19;809;-65
2023/08/27 15:04:12;;;;;;;;;;;;;;;;;;7367420;19;1333;-65
2023/08/27 15:06:40;;;;;;;;;;;;;;;;;;7368228;19;842;-66
2023/08/27 15:09:08;;;;;;;;;;;;;;;;;;7366015;19;1651;-65
2023/08/27 15:11:36;;;;;;;;;;;;;;;;;;7369553;19;1836;-64
2023/08/27 15:14:04;;;;;;;;;;;;;;;;;;7365265;19;1842;-63
2023/08/27 15:16:33;;;;;;;;;;;;;;;;;;7363967;19;1309;-65
2023/08/27 15:19:01;;;;;;;;;;;;;;;;;;7368621;19;1694;-64
2023/08/27 15:21:29;;;;;;;;;;;;;;;;;;7371060;19;1459;-65
2023/08/27 15:23:57;;;;;;;;;;;;;;;;;;7366625;19;828;-64
2023/08/27 15:26:25;;;;;;;;;;;;;;;;;;7363530;19;1265;-64
2023/08/27 15:28:54;;;;;;;;;;;;;;;;;;7367574;19;2010;-65
2023/08/27 15:31:22;;;;;;;;;;;;;;;;;;7370472;19;1454;-65
2023/08/27 15:33:50;;;;;;;;;;;;;;;;;;7365564;19;1845;-64
2023/08/27 15:36:18;;;;;;;;;;;;;;;;;;7365479;19;1678;-69
2023/08/27 15:38:46;;;;;;;;;;;;;;;;;;7367491;19;1933;-64
2023/08/27 15:41:14;;;;;;;;;;;;;;;;;;7369192;19;1665;-64
2023/08/27 15:43:43;;;;;;;;;;;;;;;;;;7367784;19;1554;-64
2023/08/27 15:46:11;;;;;;;;;;;;;;;;;;7364062;19;1951;-67
2023/08/27 15:48:39;;;;;;;;;;;;;;;;;;7367575;19;1655;-65
2023/08/27 15:51:07;;;;;;;;;;;;;;;;;;7369549;19;1478;-65
2023/08/27 15:53:35;;;;;;;;;;;;;;;;;;7365310;19;1966;-66
2023/08/27 15:56:03;;;;;;;;;;;;;;;;;;7366647;19;1875;-65
2023/08/27 15:58:32;;;;;;;;;;;;;;;;;;7369388;19;1788;-65
2023/08/27 16:01:00;;;;;;;;;;;;;;;;;;7365219;19;794;-66
2023/08/27 16:03:28;;;;;;;;;;;;;;;;;;7368449;19;1955;-64
2023/08/27 16:05:56;;;;;;;;;;;;;;;;;;7367003;19;1785;-64
2023/08/27 16:08:24;;;;;;;;;;;;;;;;;;7368636;19;1825;-64
2023/08/27 16:10:52;;;;;;;;;;;;;;;;;;7365992;19;1698;-66
2023/08/27 16:13:20;;;;;;;;;;;;;;;;;;7368233;19;1861;-64
2023/08/27 16:15:49;;;;;;;;;;;;;;;;;;7365516;19;1777;-66
2023/08/27 16:18:17;;;;;;;;;;;;;;;;;;7371260;19;1826;-64
2023/08/27 16:20:45;;;;;;;;;;;;;;;;;;7373171;19;1964;-65
2023/08/27 16:23:13;;;;;;;;;;;;;;;;;;7376305;19;1654;-65
2023/08/27 16:25:41;;;;;;;;;;;;;;;;;;7373792;19;1336;-64
2023/08/27 16:28:09;;;;;;;;;;;;;;;;;;7374179;19;853;-64
2023/08/27 16:30:37;;;;;;;;;;;;;;;;;;7381000;19;872;-65
2023/08/27 16:33:06;;;;;;;;;;;;;;;;;;7389521;19;864;-65
2023/08/27 16:35:34;;;;;;;;;;;;;;;;;;7377343;19;1818;-63
2023/08/27 16:38:02;;;;;;;;;;;;;;;;;;7378988;19;862;-66
2023/08/27 16:40:30;;;;;;;;;;;;;;;;;;7383048;19;823;-65
2023/08/27 16:42:58;;;;;;;;;;;;;;;;;;7369811;19;842;-65
2023/08/27 16:45:26;;;;;;;;;;;;;;;;;;7367205;19;1341;-64
2023/08/27 16:47:54;;;;;;;;;;;;;;;;;;7371054;19;1932;-64
2023/08/27 16:50:22;;;;;;;;;;;;;;;;;;7371778;19;1684;-66
2023/08/27 16:52:51;;;;;;;;;;;;;;;;;;7372066;19;1983;-65
2023/08/27 16:55:19;;;;;;;;;;;;;;;;;;7369618;19;1849;-65
2023/08/27 16:57:48;;;;;;;;;;;;;;;;;;7369586;19;798;-65
2023/08/27 17:00:16;;;;;;;;;;;;;;;;;;7369527;19;800;-65
2023/08/27 17:02:44;;;;;;;;;;;;;;;;;;7376961;19;2314;-65
2023/08/27 17:05:12;;;;;;;;;;;;;;;;;;7375744;19;1855;-65
2023/08/27 17:07:40;;;;;;;;;;;;;;;;;;7376227;19;1834;-65
2023/08/27 17:10:09;;;;;;;;;;;;;;;;;;7375563;19;1733;-65
2023/08/27 17:12:37;;;;;;;;;;;;;;;;;;7377012;19;1733;-65